createdAt,value
2023-02-19T00:01:45.475Z,39.04
2023-02-19T00:04:16.444Z,38.97
2023-02-19T00:06:45.834Z,38.99
2023-02-19T00:09:15.724Z,38.92
2023-02-19T00:11:46.492Z,39.03
2023-02-19T00:14:17.521Z,38.97
2023-02-19T00:16:45.901Z,39.01
2023-02-19T00:19:15.858Z,39.01
2023-02-19T00:21:44.104Z,38.97
2023-02-19T00:24:14.406Z,39.04
2023-02-19T00:26:44.745Z,39.01
2023-02-19T00:29:17.225Z,38.96
2023-02-19T00:31:46.232Z,38.96
2023-02-19T00:34:15.287Z,38.91
2023-02-19T00:36:44.209Z,38.87
2023-02-19T00:39:18.664Z,38.90
2023-02-19T00:41:47.120Z,38.96
2023-02-19T00:44:17.355Z,38.89
2023-02-19T00:46:47.501Z,38.98
2023-02-19T00:49:18.596Z,38.92
2023-02-19T00:51:47.209Z,38.88
2023-02-19T00:54:16.013Z,38.83
2023-02-19T00:56:44.448Z,38.98
2023-02-19T00:59:12.835Z,39.07
2023-02-19T01:01:44.629Z,38.97
2023-02-19T01:04:13.533Z,38.89
2023-02-19T01:06:41.991Z,38.88
2023-02-19T01:09:10.362Z,38.86
2023-02-19T01:11:38.718Z,38.83
2023-02-19T01:14:07.160Z,38.80
2023-02-19T01:16:35.400Z,38.84
2023-02-19T01:19:05.207Z,38.77
2023-02-19T01:21:33.481Z,38.72
2023-02-19T01:24:02.253Z,38.77
2023-02-19T01:26:32.751Z,38.82
2023-02-19T01:29:02.120Z,38.80
2023-02-19T01:31:31.284Z,38.71
2023-02-19T01:34:02.085Z,38.77
2023-02-19T01:36:34.660Z,38.58
2023-02-19T01:39:05.292Z,38.74
2023-02-19T01:41:36.494Z,38.60
2023-02-19T01:44:08.085Z,38.64
2023-02-19T01:46:37.677Z,38.64
2023-02-19T01:49:09.499Z,38.52
2023-02-19T01:51:43.220Z,38.54
2023-02-19T01:54:13.987Z,38.55
2023-02-19T01:56:43.940Z,38.58
2023-02-19T01:59:12.533Z,38.64
2023-02-19T02:01:41.895Z,38.60
2023-02-19T02:04:13.611Z,38.54
2023-02-19T02:06:49.392Z,38.75
2023-02-19T02:09:34.555Z,38.51
2023-02-19T02:12:02.780Z,38.51
2023-02-19T02:14:35.616Z,38.58
2023-02-19T02:17:14.561Z,38.21
2023-02-19T02:20:04.393Z,38.11
2023-02-19T02:22:39.464Z,38.36
2023-02-19T02:25:41.474Z,37.97
2023-02-19T02:28:30.963Z,38.21
2023-02-19T02:31:04.142Z,38.55
2023-02-19T02:33:37.557Z,38.38
2023-02-19T02:36:10.320Z,38.57
2023-02-19T02:38:41.985Z,38.51
2023-02-19T02:41:11.397Z,38.56
2023-02-19T02:43:39.896Z,38.59
2023-02-19T02:46:12.968Z,38.44
2023-02-19T02:48:46.821Z,38.56
2023-02-19T02:51:21.950Z,38.47
2023-02-19T02:54:11.105Z,38.50
2023-02-19T02:56:41.544Z,38.42
2023-02-19T02:59:12.307Z,38.49
2023-02-19T03:02:04.055Z,38.33
2023-02-19T03:04:37.979Z,38.48
2023-02-19T03:07:10.125Z,38.46
2023-02-19T03:09:41.498Z,38.50
2023-02-19T03:12:32.304Z,38.43
2023-02-19T03:15:24.853Z,38.38
2023-02-19T03:18:15.185Z,38.35
2023-02-19T03:20:48.254Z,38.41
2023-02-19T03:23:19.120Z,38.46
2023-02-19T03:26:06.206Z,38.47
2023-02-19T03:28:54.939Z,38.35
2023-02-19T03:31:25.901Z,38.42
2023-02-19T03:33:59.669Z,38.34
2023-02-19T03:36:32.397Z,38.31
2023-02-19T03:39:04.045Z,38.27
2023-02-19T03:41:37.304Z,38.39
2023-02-19T03:44:13.871Z,38.24
2023-02-19T03:46:47.891Z,38.20
2023-02-19T03:49:24.449Z,38.06
2023-02-19T03:52:00.046Z,38.16
2023-02-19T03:54:37.228Z,38.13
2023-02-19T03:57:11.744Z,38.30
2023-02-19T03:59:45.389Z,38.21
2023-02-19T04:02:15.450Z,38.21
2023-02-19T04:04:48.776Z,38.24
2023-02-19T04:07:17.108Z,38.20
2023-02-19T04:09:48.574Z,38.25
2023-02-19T04:12:20.196Z,38.13
2023-02-19T04:14:53.904Z,38.07
2023-02-19T04:17:28.648Z,38.24
2023-02-19T04:20:01.523Z,38.11
2023-02-19T04:22:30.916Z,38.06
2023-02-19T04:24:59.252Z,38.11
2023-02-19T04:27:27.521Z,38.23
2023-02-19T04:29:55.639Z,37.93
2023-02-19T04:32:23.773Z,38.26
2023-02-19T04:34:54.248Z,38.09
2023-02-19T04:37:23.896Z,38.08
2023-02-19T04:39:51.953Z,38.10
2023-02-19T04:42:20.057Z,38.21
2023-02-19T04:44:48.165Z,38.16
2023-02-19T04:47:17.856Z,38.17
2023-02-19T04:49:46.113Z,38.07
2023-02-19T04:52:14.530Z,38.08
2023-02-19T04:54:44.030Z,38.07
2023-02-19T04:57:12.538Z,38.07
2023-02-19T04:59:40.783Z,38.06
2023-02-19T05:02:09.126Z,38.10
2023-02-19T05:04:37.453Z,38.11
2023-02-19T05:07:05.684Z,38.05
2023-02-19T05:09:33.940Z,38.02
2023-02-19T05:12:03.791Z,38.00
2023-02-19T05:14:31.908Z,37.99
2023-02-19T05:17:00.096Z,38.01
2023-02-19T05:19:28.463Z,38.02
2023-02-19T05:21:56.921Z,37.93
2023-02-19T05:24:26.989Z,37.76
2023-02-19T05:26:55.100Z,37.83
2023-02-19T05:29:24.774Z,38.06
2023-02-19T05:31:53.105Z,37.90
2023-02-19T05:34:21.542Z,37.83
2023-02-19T05:36:49.925Z,37.89
2023-02-19T05:39:18.510Z,37.88
2023-02-19T05:41:46.778Z,37.95
2023-02-19T05:44:14.904Z,37.88
2023-02-19T05:46:44.495Z,37.90
2023-02-19T05:49:12.692Z,37.89
2023-02-19T05:51:40.842Z,37.79
2023-02-19T05:54:10.262Z,37.83
2023-02-19T05:56:40.196Z,37.84
2023-02-19T05:59:15.489Z,37.91
2023-02-19T06:01:45.059Z,37.83
2023-02-19T06:04:14.253Z,38.02
2023-02-19T06:06:44.269Z,37.88
2023-02-19T06:09:15.067Z,37.79
2023-02-19T06:11:43.769Z,37.69
2023-02-19T06:14:14.776Z,37.87
2023-02-19T06:16:45.795Z,37.76
2023-02-19T06:19:14.549Z,37.78
2023-02-19T06:21:42.719Z,37.74
2023-02-19T06:24:11.633Z,37.77
2023-02-19T06:26:40.326Z,37.82
2023-02-19T06:29:08.970Z,38.00
2023-02-19T06:31:37.209Z,37.87
2023-02-19T06:34:07.623Z,37.79
2023-02-19T06:36:36.128Z,37.80
2023-02-19T06:39:06.298Z,37.79
2023-02-19T06:41:35.397Z,37.91
2023-02-19T06:44:03.615Z,37.77
2023-02-19T06:46:32.988Z,37.79
2023-02-19T06:49:01.252Z,37.88
2023-02-19T06:51:32.778Z,37.84
2023-02-19T06:54:02.447Z,37.78
2023-02-19T06:56:32.462Z,37.80
2023-02-19T06:59:02.429Z,37.93
2023-02-19T07:01:32.363Z,37.73
2023-02-19T07:04:02.287Z,37.77
2023-02-19T07:06:34.022Z,37.76
2023-02-19T07:09:04.500Z,37.93
2023-02-19T07:11:35.215Z,37.79
2023-02-19T07:14:05.319Z,37.66
2023-02-19T07:16:34.244Z,37.75
2023-02-19T07:19:03.501Z,37.70
2023-02-19T07:21:38.356Z,37.65
2023-02-19T07:24:07.471Z,37.75
2023-02-19T07:26:36.126Z,37.68
2023-02-19T07:29:04.758Z,37.74
2023-02-19T07:31:33.023Z,37.76
2023-02-19T07:34:01.307Z,37.70
2023-02-19T07:36:29.989Z,37.72
2023-02-19T07:39:03.806Z,37.70
2023-02-19T07:41:33.356Z,37.64
2023-02-19T07:44:02.238Z,37.49
2023-02-19T07:46:31.226Z,37.57
2023-02-19T07:49:07.320Z,37.44
2023-02-19T07:51:35.469Z,37.45
2023-02-19T07:54:08.386Z,37.43
2023-02-19T07:56:36.601Z,37.47
2023-02-19T07:59:06.813Z,37.62
2023-02-19T08:01:52.603Z,37.65
2023-02-19T08:04:20.688Z,37.55
2023-02-19T08:06:48.974Z,37.61
2023-02-19T08:09:18.547Z,37.68
2023-02-19T08:12:09.247Z,37.61
2023-02-19T08:14:37.385Z,37.64
2023-02-19T08:17:05.654Z,37.70
2023-02-19T08:19:34.229Z,37.78
2023-02-19T08:22:02.425Z,37.68
2023-02-19T08:24:33.968Z,37.66
2023-02-19T08:27:02.197Z,37.64
2023-02-19T08:29:30.343Z,37.58
2023-02-19T08:31:58.507Z,37.63
2023-02-19T08:34:26.753Z,37.52
2023-02-19T08:36:54.930Z,37.52
2023-02-19T08:39:23.234Z,37.52
2023-02-19T08:41:52.759Z,37.60
2023-02-19T08:44:21.106Z,37.58
2023-02-19T08:46:49.282Z,37.49
2023-02-19T08:49:17.723Z,37.60
2023-02-19T08:51:45.906Z,37.53
2023-02-19T08:54:14.079Z,37.60
2023-02-19T08:56:42.233Z,37.50
2023-02-19T08:59:11.881Z,37.56
2023-02-19T09:01:40.259Z,37.52
2023-02-19T09:04:09.769Z,37.44
2023-02-19T09:06:40.013Z,37.56
2023-02-19T09:09:08.272Z,37.58
2023-02-19T09:11:36.517Z,37.34
2023-02-19T09:14:07.563Z,37.34
2023-02-19T09:16:38.003Z,37.49
2023-02-19T09:19:06.368Z,37.52
2023-02-19T09:21:34.596Z,37.27
2023-02-19T09:24:02.882Z,37.47
2023-02-19T09:26:30.956Z,37.47
2023-02-19T09:28:59.089Z,37.33
2023-02-19T09:31:27.390Z,37.32
2023-02-19T09:33:57.014Z,37.32
2023-02-19T09:36:25.152Z,37.41
2023-02-19T09:38:53.437Z,37.44
2023-02-19T09:41:30.151Z,37.43
2023-02-19T09:43:59.888Z,37.53
2023-02-19T09:46:32.657Z,37.33
2023-02-19T09:49:06.636Z,37.33
2023-02-19T09:51:37.727Z,37.41
2023-02-19T09:54:08.925Z,37.33
2023-02-19T09:56:37.328Z,37.27
2023-02-19T09:59:07.356Z,37.61
2023-02-19T10:01:41.110Z,37.20
2023-02-19T10:04:12.435Z,37.19
2023-02-19T10:06:40.731Z,37.10
2023-02-19T10:09:23.927Z,36.85
2023-02-19T10:11:55.870Z,37.07
2023-02-19T10:14:30.430Z,37.20
2023-02-19T10:17:06.505Z,37.02
2023-02-19T10:19:37.327Z,37.21
2023-02-19T10:22:06.212Z,37.28
2023-02-19T10:24:36.418Z,37.22
2023-02-19T10:27:14.002Z,37.25
2023-02-19T10:29:45.077Z,37.22
2023-02-19T10:32:22.037Z,37.07
2023-02-19T10:35:10.242Z,36.82
2023-02-19T10:37:45.750Z,37.18
2023-02-19T10:40:27.620Z,37.25
2023-02-19T10:43:00.477Z,37.16
2023-02-19T10:45:36.146Z,37.28
2023-02-19T10:48:10.023Z,37.28
2023-02-19T10:50:45.003Z,37.30
2023-02-19T10:53:23.534Z,37.00
2023-02-19T10:56:08.718Z,36.61
2023-02-19T10:58:41.106Z,37.22
2023-02-19T11:01:19.868Z,37.32
2023-02-19T11:03:50.169Z,37.25
2023-02-19T11:06:24.415Z,37.28
2023-02-19T11:08:56.770Z,37.20
2023-02-19T11:11:40.024Z,36.91
2023-02-19T11:14:18.297Z,37.03
2023-02-19T11:16:49.799Z,37.20
2023-02-19T11:19:32.866Z,36.80
2023-02-19T11:22:03.697Z,37.17
2023-02-19T11:24:37.479Z,37.17
2023-02-19T11:27:07.890Z,37.29
2023-02-19T11:29:36.313Z,37.26
2023-02-19T11:32:27.361Z,36.83
2023-02-19T11:35:17.911Z,36.76
2023-02-19T11:37:59.001Z,36.87
2023-02-19T11:40:41.649Z,36.91
2023-02-19T11:43:36.403Z,36.87
2023-02-19T11:46:14.072Z,37.10
2023-02-19T11:48:55.089Z,36.97
2023-02-19T11:51:41.194Z,36.88
2023-02-19T11:54:23.171Z,36.69
2023-02-19T11:57:00.696Z,37.08
2023-02-19T11:59:34.932Z,37.19
2023-02-19T12:02:23.868Z,36.96
2023-02-19T12:05:13.883Z,37.15
2023-02-19T12:08:11.537Z,37.01
2023-02-19T12:10:58.740Z,37.01
2023-02-19T12:13:36.758Z,37.18
2023-02-19T12:16:22.378Z,36.93
2023-02-19T12:19:19.936Z,37.02
2023-02-19T12:22:05.788Z,37.15
2023-02-19T12:25:18.182Z,36.96
2023-02-19T12:28:01.728Z,37.20
2023-02-19T12:30:49.167Z,37.25
2023-02-19T12:33:39.846Z,37.00
2023-02-19T12:36:17.622Z,37.24
2023-02-19T12:38:50.825Z,37.39
2023-02-19T12:41:31.267Z,37.35
2023-02-19T12:44:07.365Z,37.45
2023-02-19T12:46:40.646Z,37.45
2023-02-19T12:49:14.261Z,37.42
2023-02-19T12:51:46.945Z,37.38
2023-02-19T12:54:23.842Z,37.35
2023-02-19T12:56:59.139Z,37.41
2023-02-19T12:59:34.673Z,37.45
2023-02-19T13:02:15.109Z,37.41
2023-02-19T13:04:49.032Z,37.47
2023-02-19T13:07:21.823Z,37.47
2023-02-19T13:09:54.150Z,37.42
2023-02-19T13:12:27.655Z,37.56
2023-02-19T13:15:01.800Z,37.45
2023-02-19T13:17:38.422Z,37.44
2023-02-19T13:20:19.587Z,37.33
2023-02-19T13:23:15.092Z,37.45
2023-02-19T13:25:57.510Z,37.51
2023-02-19T13:28:43.121Z,37.47
2023-02-19T13:31:46.739Z,37.29
2023-02-19T13:34:26.986Z,37.38
2023-02-19T13:36:56.507Z,37.42
2023-02-19T13:39:24.901Z,37.68
2023-02-19T13:42:11.943Z,37.57
2023-02-19T13:44:42.417Z,37.48
2023-02-19T13:47:43.781Z,37.43
2023-02-19T13:50:20.027Z,37.48
2023-02-19T13:52:48.208Z,37.50
2023-02-19T13:55:54.139Z,37.45
2023-02-19T13:58:56.039Z,37.37
2023-02-19T14:02:08.460Z,37.40
2023-02-19T14:04:54.669Z,37.58
2023-02-19T14:07:37.267Z,37.46
2023-02-19T14:10:07.818Z,37.62
2023-02-19T14:12:37.281Z,37.67
2023-02-19T14:15:41.703Z,37.48
2023-02-19T14:18:44.392Z,37.52
2023-02-19T14:21:19.594Z,37.74
2023-02-19T14:23:54.833Z,37.68
2023-02-19T14:26:23.919Z,37.65
2023-02-19T14:28:54.032Z,37.37
2023-02-19T14:31:29.318Z,37.68
2023-02-19T14:34:01.906Z,37.79
2023-02-19T14:36:45.659Z,37.68
2023-02-19T14:39:19.038Z,37.72
2023-02-19T14:41:49.903Z,37.83
2023-02-19T14:44:23.408Z,37.75
2023-02-19T14:46:58.049Z,37.75
2023-02-19T14:49:31.921Z,37.75
2023-02-19T14:52:02.427Z,37.86
2023-02-19T14:54:45.261Z,37.91
2023-02-19T14:57:19.100Z,37.96
2023-02-19T14:59:57.757Z,37.91
2023-02-19T15:02:27.195Z,37.75
2023-02-19T15:04:56.316Z,37.99
2023-02-19T15:07:29.210Z,37.99
2023-02-19T15:10:05.090Z,38.15
2023-02-19T15:12:42.722Z,38.20
2023-02-19T15:15:19.479Z,38.19
2023-02-19T15:17:47.992Z,38.13
2023-02-19T15:20:20.426Z,38.19
2023-02-19T15:22:48.855Z,38.21
2023-02-19T15:25:22.094Z,38.35
2023-02-19T15:27:50.380Z,38.31
2023-02-19T15:30:28.569Z,38.25
2023-02-19T15:32:58.625Z,38.34
2023-02-19T15:35:29.905Z,38.25
2023-02-19T15:37:59.459Z,38.34
2023-02-19T15:40:32.693Z,38.33
2023-02-19T15:43:02.395Z,38.42
2023-02-19T15:45:38.365Z,38.28
2023-02-19T15:48:11.010Z,38.30
2023-02-19T15:50:44.283Z,38.43
2023-02-19T15:53:18.364Z,38.23
2023-02-19T15:55:56.122Z,38.26
2023-02-19T15:58:30.161Z,38.36
2023-02-19T16:01:03.056Z,38.30
2023-02-19T16:03:32.475Z,38.36
2023-02-19T16:06:03.198Z,38.38
2023-02-19T16:08:34.703Z,38.18
2023-02-19T16:11:08.204Z,38.41
2023-02-19T16:13:37.023Z,38.28
2023-02-19T16:16:15.493Z,38.28
2023-02-19T16:18:47.545Z,38.35
2023-02-19T16:21:19.269Z,38.45
2023-02-19T16:23:51.038Z,38.35
2023-02-19T16:26:20.937Z,38.39
2023-02-19T16:28:52.810Z,38.46
2023-02-19T16:31:23.834Z,38.36
2023-02-19T16:33:53.716Z,38.43
2023-02-19T16:36:35.753Z,38.40
2023-02-19T16:39:25.088Z,38.39
2023-02-19T16:42:19.673Z,38.43
2023-02-19T16:44:50.973Z,38.37
2023-02-19T16:47:33.904Z,38.42
2023-02-19T16:50:06.164Z,38.40
2023-02-19T16:52:39.075Z,38.32
2023-02-19T16:55:14.311Z,38.45
2023-02-19T16:57:44.118Z,38.36
2023-02-19T17:00:20.090Z,38.37
2023-02-19T17:02:49.596Z,38.58
2023-02-19T17:05:18.444Z,38.47
2023-02-19T17:07:46.757Z,38.48
2023-02-19T17:10:17.950Z,38.48
2023-02-19T17:12:47.858Z,38.36
2023-02-19T17:15:17.223Z,38.50
2023-02-19T17:17:46.402Z,38.44
2023-02-19T17:20:24.378Z,38.40
2023-02-19T17:22:53.792Z,38.56
2023-02-19T17:25:21.903Z,38.34
2023-02-19T17:27:51.924Z,38.40
2023-02-19T17:30:27.129Z,38.46
2023-02-19T17:32:57.214Z,38.44
2023-02-19T17:35:26.332Z,38.42
2023-02-19T17:37:55.212Z,38.55
2023-02-19T17:40:33.157Z,38.60
2023-02-19T17:43:08.032Z,38.56
2023-02-19T17:45:36.101Z,38.43
2023-02-19T17:48:05.712Z,38.61
2023-02-19T17:50:34.583Z,38.47
2023-02-19T17:53:03.697Z,38.48
2023-02-19T17:55:32.539Z,38.56
2023-02-19T17:58:02.962Z,38.57
2023-02-19T18:00:32.374Z,38.55
2023-02-19T18:03:01.109Z,38.49
2023-02-19T18:05:30.591Z,38.49
2023-02-19T18:08:00.394Z,38.48
2023-02-19T18:10:30.490Z,38.61
2023-02-19T18:12:58.782Z,38.53
2023-02-19T18:15:29.016Z,38.68
2023-02-19T18:17:59.069Z,38.62
2023-02-19T18:20:28.937Z,38.59
2023-02-19T18:22:57.788Z,38.77
2023-02-19T18:25:26.284Z,38.85
2023-02-19T18:27:55.242Z,38.69
2023-02-19T18:30:24.742Z,38.82
2023-02-19T18:32:54.326Z,38.79
2023-02-19T18:35:22.960Z,38.77
2023-02-19T18:37:52.921Z,38.86
2023-02-19T18:40:21.515Z,38.57
2023-02-19T18:42:49.663Z,38.83
2023-02-19T18:45:18.292Z,38.85
2023-02-19T18:47:48.501Z,38.95
2023-02-19T18:50:20.078Z,38.77
2023-02-19T18:52:48.259Z,38.77
2023-02-19T18:55:16.676Z,38.87
2023-02-19T18:57:45.279Z,38.88
2023-02-19T19:00:18.319Z,38.77
2023-02-19T19:02:49.707Z,38.87
2023-02-19T19:05:23.368Z,38.95
2023-02-19T19:07:52.461Z,38.79
2023-02-19T19:10:20.878Z,38.75
2023-02-19T19:12:49.928Z,38.78
2023-02-19T19:15:19.150Z,38.78
2023-02-19T19:17:47.664Z,38.85
2023-02-19T19:20:17.302Z,38.83
2023-02-19T19:22:46.969Z,38.84
2023-02-19T19:25:15.358Z,38.78
2023-02-19T19:27:43.512Z,38.86
2023-02-19T19:30:12.451Z,38.90
2023-02-19T19:32:40.952Z,38.75
2023-02-19T19:35:09.778Z,38.79
2023-02-19T19:37:37.903Z,38.71
2023-02-19T19:40:09.583Z,38.86
2023-02-19T19:42:37.858Z,38.88
2023-02-19T19:45:06.717Z,38.76
2023-02-19T19:47:35.817Z,38.91
2023-02-19T19:50:04.137Z,39.10
2023-02-19T19:52:32.403Z,39.00
2023-02-19T19:55:00.597Z,38.81
2023-02-19T19:57:30.229Z,39.03
2023-02-19T19:59:58.421Z,38.93
2023-02-19T20:02:26.764Z,38.86
2023-02-19T20:04:55.121Z,38.99
2023-02-19T20:07:23.376Z,38.87
2023-02-19T20:09:51.786Z,38.74
2023-02-19T20:12:19.947Z,39.16
2023-02-19T20:14:49.605Z,38.90
2023-02-19T20:17:17.759Z,39.06
2023-02-19T20:19:47.231Z,38.89
2023-02-19T20:22:15.412Z,38.96
2023-02-19T20:24:43.561Z,38.88
2023-02-19T20:27:11.917Z,39.01
2023-02-19T20:29:40.022Z,38.98
2023-02-19T20:32:09.575Z,38.93
2023-02-19T20:34:38.222Z,38.96
2023-02-19T20:37:06.976Z,39.02
2023-02-19T20:39:37.011Z,39.01
2023-02-19T20:42:05.953Z,38.92
2023-02-19T20:44:34.251Z,38.87
2023-02-19T20:47:03.067Z,39.04
2023-02-19T20:49:34.421Z,39.05
2023-02-19T20:52:06.118Z,39.00
2023-02-19T20:54:36.297Z,39.00
2023-02-19T20:57:06.682Z,38.90
2023-02-19T20:59:36.016Z,38.93
2023-02-19T21:02:05.451Z,39.04
2023-02-19T21:04:35.562Z,39.02
2023-02-19T21:07:03.606Z,39.10
2023-02-19T21:09:32.215Z,39.02
2023-02-19T21:12:00.408Z,38.96
2023-02-19T21:14:28.420Z,39.06
2023-02-19T21:16:56.705Z,38.99
2023-02-19T21:19:24.846Z,39.08
2023-02-19T21:21:54.311Z,38.98
2023-02-19T21:24:22.380Z,38.93
2023-02-19T21:26:50.450Z,39.01
2023-02-19T21:29:21.561Z,39.06
2023-02-19T21:31:52.764Z,39.13
2023-02-19T21:34:23.239Z,39.05
2023-02-19T21:36:51.453Z,39.02
2023-02-19T21:39:22.843Z,39.08
2023-02-19T21:41:51.779Z,39.00
2023-02-19T21:44:21.182Z,38.98
2023-02-19T21:46:50.137Z,38.97
2023-02-19T21:49:18.802Z,39.17
2023-02-19T21:51:48.801Z,39.04
2023-02-19T21:54:20.929Z,39.01
2023-02-19T21:56:50.428Z,39.15
2023-02-19T21:59:18.718Z,39.15
2023-02-19T22:01:47.267Z,38.97
2023-02-19T22:04:17.308Z,38.95
2023-02-19T22:06:45.866Z,39.00
2023-02-19T22:09:15.017Z,39.03
2023-02-19T22:11:43.183Z,39.06
2023-02-19T22:14:12.760Z,39.02
2023-02-19T22:16:40.871Z,39.07
2023-02-19T22:19:09.110Z,39.08
2023-02-19T22:21:37.181Z,39.10
2023-02-19T22:24:05.701Z,39.17
2023-02-19T22:26:35.925Z,38.84
2023-02-19T22:29:07.338Z,39.12
2023-02-19T22:31:37.256Z,39.23
2023-02-19T22:34:06.412Z,39.15
2023-02-19T22:36:37.328Z,38.96
2023-02-19T22:39:06.893Z,39.04
2023-02-19T22:41:35.515Z,39.04
2023-02-19T22:44:03.943Z,39.07
2023-02-19T22:46:32.505Z,39.17
2023-02-19T22:49:04.266Z,39.18
2023-02-19T22:51:32.931Z,39.02
2023-02-19T22:54:01.652Z,39.19
2023-02-19T22:56:30.480Z,39.07
2023-02-19T22:58:59.337Z,39.14
2023-02-19T23:01:27.553Z,39.13
2023-02-19T23:03:57.231Z,39.20
2023-02-19T23:06:28.755Z,39.24
2023-02-19T23:08:58.341Z,39.13
2023-02-19T23:11:28.318Z,39.15
2023-02-19T23:13:56.750Z,39.21
2023-02-19T23:16:24.983Z,39.16
2023-02-19T23:18:53.762Z,39.14
2023-02-19T23:21:23.729Z,39.16
2023-02-19T23:23:53.885Z,39.13
2023-02-19T23:26:22.056Z,39.14
2023-02-19T23:28:50.577Z,39.08
2023-02-19T23:31:19.162Z,39.10
2023-02-19T23:33:47.802Z,39.18
2023-02-19T23:36:16.720Z,39.19
2023-02-19T23:38:46.428Z,38.99
2023-02-19T23:41:17.618Z,39.55
2023-02-19T23:43:45.802Z,39.06
2023-02-19T23:46:17.623Z,39.31
2023-02-19T23:48:46.478Z,39.33
2023-02-19T23:51:14.984Z,39.18
2023-02-19T23:53:43.132Z,39.19
2023-02-19T23:56:11.681Z,39.13
2023-02-19T23:58:41.503Z,39.16
